Time;durP1;ratioP1;P1;durP2;ratioP2;P2;SDS_P1;SDS_P2;PMS_P1;PMS_P2;Temp;Humidity;BMP_temperature;BMP_pressure;BME280_temperature;BME280_humidity;BME280_pressure;Samples;Min_cycle;Max_cycle;Signal;HPM_P1;HPM_P2
2021/07/06 00:02:05;;;;;;;6.90;4.15;;;;;;;24.43;61.43;98799.28;1756386;81;21021;-43
2021/07/06 00:04:31;;;;;;;5.45;4.17;;;;;;;24.41;61.35;98797.58;1752680;81;21069;-43
2021/07/06 00:06:58;;;;;;;4.83;4.33;;;;;;;24.39;61.19;98797.91;1736909;81;21016;-43
2021/07/06 00:09:26;;;;;;;6.42;4.58;;;;;;;24.36;61.11;98799.59;1756224;81;21004;-43
2021/07/06 00:11:52;;;;;;;6.22;4.28;;;;;;;24.36;61.11;98803.75;1756396;81;21164;-43
2021/07/06 00:14:20;;;;;;;8.03;4.60;;;;;;;24.32;61.02;98801.77;1756489;81;21007;-43
2021/07/06 00:16:48;;;;;;;7.30;4.30;;;;;;;24.28;61.15;98806.70;1756485;81;21051;-43
2021/07/06 00:19:15;;;;;;;6.80;4.40;;;;;;;24.27;61.45;98803.00;1756629;81;21057;-43
2021/07/06 00:21:41;;;;;;;6.45;4.37;;;;;;;24.29;61.33;98809.63;1756506;81;21029;-43
2021/07/06 00:24:08;;;;;;;8.20;4.30;;;;;;;24.30;61.20;98811.79;1756658;81;21094;-43
2021/07/06 00:26:34;;;;;;;4.92;4.42;;;;;;;24.29;61.27;98804.70;1756381;81;20965;-43
2021/07/06 00:29:02;;;;;;;6.25;4.35;;;;;;;24.29;61.19;98809.63;1756428;81;20953;-43
2021/07/06 00:31:29;;;;;;;8.33;4.37;;;;;;;24.28;61.19;98801.16;1755750;81;21084;-43
2021/07/06 00:33:55;;;;;;;6.03;4.80;;;;;;;24.26;61.31;98799.46;1736309;81;21032;-43
2021/07/06 00:36:22;;;;;;;6.05;4.50;;;;;;;24.23;61.27;98805.33;1746371;81;21141;-43
2021/07/06 00:38:49;;;;;;;5.50;4.42;;;;;;;24.25;61.16;98802.11;1754712;81;21073;-43
2021/07/06 00:41:16;;;;;;;5.92;4.70;;;;;;;24.26;61.16;98809.16;1754851;81;20934;-43
2021/07/06 00:43:43;;;;;;;6.85;4.37;;;;;;;24.28;61.05;98812.25;1754803;81;21025;-43
2021/07/06 00:46:09;;;;;;;4.87;4.37;;;;;;;24.27;61.01;98814.09;1755022;81;21084;-43
2021/07/06 00:48:36;;;;;;;5.00;4.60;;;;;;;24.27;60.99;98808.55;1755126;81;21507;-43
2021/07/06 00:51:03;;;;;;;8.03;4.90;;;;;;;24.25;60.89;98806.26;1756523;81;20969;-43
2021/07/06 00:53:29;;;;;;;4.60;4.17;;;;;;;24.22;60.96;98808.56;1755423;81;20997;-43
2021/07/06 00:55:57;;;;;;;6.12;4.62;;;;;;;24.17;61.06;98812.72;1755980;80;21069;-43
2021/07/06 00:58:25;;;;;;;7.53;4.60;;;;;;;24.14;61.09;98805.94;1756811;81;21065;-43
2021/07/06 01:00:51;;;;;;;5.65;4.00;;;;;;;24.13;61.09;98805.77;1755974;81;21208;-43
2021/07/06 01:03:18;;;;;;;7.28;3.92;;;;;;;24.12;61.26;98803.63;1749825;81;21048;-43
2021/07/06 01:05:44;;;;;;;7.42;4.20;;;;;;;24.14;61.13;98812.86;1738930;81;21027;-43
2021/07/06 01:08:11;;;;;;;6.78;4.37;;;;;;;24.14;61.10;98816.40;1754928;81;21049;-43
2021/07/06 01:10:38;;;;;;;6.87;4.20;;;;;;;24.12;61.06;98812.55;1754698;81;21033;-43
2021/07/06 01:13:06;;;;;;;5.37;4.33;;;;;;;24.12;61.03;98816.08;1737721;81;21147;-43
2021/07/06 01:15:33;;;;;;;5.80;4.30;;;;;;;24.10;61.06;98818.56;1726222;83;21019;-43
2021/07/06 01:18:13;;;;;;;5.30;4.72;;;;;;;24.08;61.00;98818.86;1726245;83;21031;-43
2021/07/06 01:20:48;;;;;;;8.20;4.55;;;;;;;24.06;61.05;98823.47;1719963;83;21024;-43
2021/07/06 01:23:17;;;;;;;5.30;4.30;;;;;;;24.04;61.05;98830.72;1753969;81;21565;-43
2021/07/06 01:25:44;;;;;;;7.22;4.20;;;;;;;24.02;61.07;98833.16;1756584;81;22783;-43
2021/07/06 01:28:11;;;;;;;6.17;4.45;;;;;;;24.03;61.11;98822.25;1756438;81;20921;-43
2021/07/06 01:30:38;;;;;;;5.10;4.60;;;;;;;24.02;61.22;98828.40;1756069;81;21574;-43
2021/07/06 01:33:06;;;;;;;6.87;4.50;;;;;;;24.00;61.28;98823.95;1754694;81;21002;-43
2021/07/06 01:35:32;;;;;;;6.50;4.40;;;;;;;24.00;61.30;98834.27;1754675;81;21037;-43
2021/07/06 01:38:03;;;;;;;5.83;4.60;;;;;;;23.98;61.39;98828.41;1755074;81;21113;-43
2021/07/06 01:40:30;;;;;;;5.60;4.78;;;;;;;23.97;61.33;98833.78;1753091;81;21040;-43
2021/07/06 01:42:57;;;;;;;5.10;4.60;;;;;;;23.92;61.25;98842.70;1754736;81;21039;-43
2021/07/06 01:45:27;;;;;;;7.42;4.53;;;;;;;23.90;61.48;98841.03;1746633;81;21351;-43
2021/07/06 01:47:57;;;;;;;6.22;4.47;;;;;;;23.89;61.39;98846.41;1739214;82;21039;-43
2021/07/06 01:50:42;;;;;;;4.92;4.40;;;;;;;23.91;61.58;98846.73;1755642;81;21118;-43
2021/07/06 01:53:13;;;;;;;5.60;4.45;;;;;;;23.93;61.39;98847.02;1756289;81;20897;-43
2021/07/06 01:55:43;;;;;;;5.22;4.33;;;;;;;23.88;61.46;98845.64;1756261;81;21555;-43
2021/07/06 01:58:12;;;;;;;4.90;4.12;;;;;;;23.86;61.32;98845.95;1756701;81;21547;-43
2021/07/06 02:00:46;;;;;;;7.08;4.87;;;;;;;23.83;61.35;98853.95;1756491;81;21467;-43
2021/07/06 02:03:13;;;;;;;6.17;5.00;;;;;;;23.81;61.48;98856.42;1755572;81;21144;-43
2021/07/06 02:05:42;;;;;;;5.62;4.17;;;;;;;23.80;61.52;98860.41;1726012;81;20965;-43
2021/07/06 02:08:14;;;;;;;7.17;4.42;;;;;;;23.80;61.65;98858.26;1713701;82;20958;-43
2021/07/06 02:10:42;;;;;;;7.83;4.67;;;;;;;23.80;61.65;98863.80;1680926;84;21012;-43
2021/07/06 02:13:12;;;;;;;6.95;4.58;;;;;;;23.80;61.53;98870.10;1707364;84;20985;-43
2021/07/06 02:15:40;;;;;;;9.03;5.03;;;;;;;23.80;61.58;98868.72;1707201;84;20957;-43
2021/07/06 02:18:14;;;;;;;5.10;4.58;;;;;;;23.79;61.52;98864.41;1707300;84;21008;-43
2021/07/06 02:20:38;;;;;;;4.95;4.45;;;;;;;23.76;61.55;98859.80;1721099;81;21598;-43
2021/07/06 02:23:06;;;;;;;5.47;4.90;;;;;;;23.76;61.62;98872.25;1743176;81;21029;-43
2021/07/06 02:25:33;;;;;;;5.28;4.72;;;;;;;23.73;61.60;98878.70;1712198;82;21053;-43
2021/07/06 02:27:59;;;;;;;9.88;4.95;;;;;;;23.71;61.71;98879.78;1717254;82;21160;-43
2021/07/06 02:30:26;;;;;;;10.48;4.95;;;;;;;23.71;61.70;98879.78;1707429;84;21021;-43
2021/07/06 02:32:53;;;;;;;7.20;5.00;;;;;;;23.73;61.75;98875.92;1707538;84;21554;-43
2021/07/06 02:35:20;;;;;;;7.25;4.58;;;;;;;23.76;61.67;98879.18;1705721;82;20978;-43
2021/07/06 02:37:48;;;;;;;9.30;4.42;;;;;;;23.79;61.59;98884.39;1698138;84;21109;-43
2021/07/06 02:40:15;;;;;;;6.40;4.80;;;;;;;23.79;61.57;98885.16;1693825;84;21105;-43
2021/07/06 02:42:42;;;;;;;6.30;4.47;;;;;;;23.80;61.56;98890.09;1694140;84;21603;-43
2021/07/06 02:45:12;;;;;;;8.93;4.80;;;;;;;23.81;61.59;98890.25;1649265;84;21069;-43
2021/07/06 02:47:39;;;;;;;6.30;4.87;;;;;;;23.80;61.65;98892.86;1703172;84;21512;-43
2021/07/06 02:50:07;;;;;;;5.22;4.72;;;;;;;23.79;61.62;98892.09;1706798;84;21029;-43
2021/07/06 02:52:34;;;;;;;11.00;4.90;;;;;;;23.77;61.67;98891.77;1699918;84;21096;-43
2021/07/06 02:55:01;;;;;;;5.83;4.45;;;;;;;23.78;61.76;98899.45;1694680;84;21258;-43
2021/07/06 02:57:35;;;;;;;6.12;4.53;;;;;;;23.83;61.64;98901.62;1694949;84;21048;-43
2021/07/06 03:00:06;;;;;;;6.60;5.15;;;;;;;23.85;61.60;98897.02;1693651;84;21042;-43
2021/07/06 03:02:32;;;;;;;6.95;4.80;;;;;;;23.84;61.94;98897.63;1677437;85;21835;-43
2021/07/06 03:04:58;;;;;;;5.72;4.80;;;;;;;23.82;61.77;98909.15;1683309;83;21161;-43
2021/07/06 03:07:25;;;;;;;6.92;5.50;;;;;;;23.82;61.79;98909.15;1684357;83;21064;-43
2021/07/06 03:09:51;;;;;;;6.60;4.80;;;;;;;23.81;61.83;98912.40;1684210;85;22076;-43
2021/07/06 03:12:18;;;;;;;6.08;4.58;;;;;;;23.82;61.84;98907.77;1684110;85;21558;-43
2021/07/06 03:14:46;;;;;;;5.55;4.40;;;;;;;23.87;61.89;98908.41;1683990;85;21610;-43
2021/07/06 03:17:14;;;;;;;5.60;4.65;;;;;;;23.90;61.88;98906.87;1684013;84;21592;-43
2021/07/06 03:19:40;;;;;;;5.90;4.75;;;;;;;23.96;61.78;98913.95;1697051;83;21061;-44
2021/07/06 03:22:07;;;;;;;8.33;5.12;;;;;;;23.97;61.80;98905.16;1703611;84;20945;-43
2021/07/06 03:24:33;;;;;;;7.55;5.15;;;;;;;24.01;61.77;98912.70;1703324;84;21051;-43
2021/07/06 03:27:00;;;;;;;5.40;4.85;;;;;;;24.03;61.95;98913.63;1703346;84;21072;-43
2021/07/06 03:29:27;;;;;;;7.28;4.72;;;;;;;24.05;62.06;98912.56;1702631;83;21642;-43
2021/07/06 03:31:54;;;;;;;5.95;4.50;;;;;;;24.09;61.68;98909.80;1696585;83;21049;-43
2021/07/06 03:34:21;;;;;;;8.43;4.85;;;;;;;24.13;61.73;98914.56;1704460;83;21036;-43
2021/07/06 03:36:47;;;;;;;6.03;5.03;;;;;;;24.18;61.90;98916.75;1712720;83;21352;-43
2021/07/06 03:39:14;;;;;;;5.37;4.22;;;;;;;24.23;61.56;98912.59;1712650;83;21040;-43
2021/07/06 03:41:41;;;;;;;10.38;4.53;;;;;;;24.28;61.38;98920.90;1712712;83;21862;-43
2021/07/06 03:44:07;;;;;;;7.05;4.85;;;;;;;24.28;61.12;98925.05;1712905;83;21594;-43
2021/07/06 03:46:34;;;;;;;6.50;5.30;;;;;;;24.29;61.06;98921.83;1712162;83;21535;-43
2021/07/06 03:49:04;;;;;;;5.25;4.75;;;;;;;24.32;61.32;98927.82;1711283;83;20994;-43
2021/07/06 03:51:31;;;;;;;8.53;5.53;;;;;;;24.34;61.25;98929.52;1681297;85;21092;-43
2021/07/06 03:53:58;;;;;;;7.30;4.72;;;;;;;24.35;61.45;98929.66;1702069;83;21092;-43
2021/07/06 03:56:25;;;;;;;6.33;4.80;;;;;;;24.36;61.38;98929.04;1688429;83;21061;-43
2021/07/06 03:58:52;;;;;;;7.87;4.90;;;;;;;24.40;61.35;98931.80;1686116;85;21021;-43
2021/07/06 04:01:18;;;;;;;5.25;4.70;;;;;;;24.45;61.44;98927.64;1686392;85;21057;-43
2021/07/06 04:03:45;;;;;;;5.05;4.55;;;;;;;24.46;61.08;98936.89;1686627;83;21072;-44
2021/07/06 04:06:11;;;;;;;6.67;4.50;;;;;;;24.47;60.85;98939.81;1686270;85;21084;-43
2021/07/06 04:08:38;;;;;;;7.72;4.95;;;;;;;24.49;61.01;98943.52;1689378;83;21100;-43
2021/07/06 04:11:05;;;;;;;5.78;4.85;;;;;;;24.50;61.21;98943.04;1715043;83;20913;-43
2021/07/06 04:13:31;;;;;;;8.63;4.78;;;;;;;24.49;61.28;98945.68;1715043;83;21037;-43
2021/07/06 04:16:00;;;;;;;6.45;4.60;;;;;;;24.49;61.31;98944.30;1699056;83;21589;-43
2021/07/06 04:18:28;;;;;;;5.83;4.50;;;;;;;24.50;61.36;98943.04;1725529;82;21082;-43
2021/07/06 04:20:54;;;;;;;6.83;4.87;;;;;;;24.53;61.22;98940.75;1749582;82;21527;-44
2021/07/06 04:23:21;;;;;;;5.90;4.60;;;;;;;24.59;61.20;98942.28;1749484;82;21041;-43
2021/07/06 04:25:47;;;;;;;5.50;5.00;;;;;;;24.62;61.29;98942.11;1750187;81;21621;-43
2021/07/06 04:28:14;;;;;;;5.67;5.12;;;;;;;24.65;60.88;98938.41;1750404;82;21029;-43
2021/07/06 04:30:41;;;;;;;11.30;5.45;;;;;;;24.68;60.95;98940.27;1715054;83;21452;-43
2021/07/06 04:33:09;;;;;;;6.55;5.35;;;;;;;24.71;60.73;98943.32;1715644;81;21032;-43
2021/07/06 04:35:36;;;;;;;5.75;5.17;;;;;;;24.72;60.94;98950.41;1730443;82;21562;-43
2021/07/06 04:38:02;;;;;;;9.75;5.83;;;;;;;24.71;60.63;98945.48;1749558;82;21089;-43
2021/07/06 04:40:29;;;;;;;8.40;6.17;;;;;;;24.69;60.35;98945.94;1729675;82;21042;-43
2021/07/06 04:42:55;;;;;;;6.30;4.80;;;;;;;24.68;60.54;98951.35;1723489;80;21248;-43
2021/07/06 04:45:23;;;;;;;6.17;5.30;;;;;;;24.71;60.46;98950.25;1751033;82;21566;-43
2021/07/06 04:47:50;;;;;;;7.50;5.28;;;;;;;24.77;60.42;98953.33;1749573;81;21004;-44
2021/07/06 04:50:17;;;;;;;7.50;5.20;;;;;;;24.82;60.44;98958.87;1749826;81;21096;-43
2021/07/06 04:52:46;;;;;;;6.40;5.20;;;;;;;24.83;60.22;98959.02;1750185;81;21073;-44
2021/07/06 04:55:14;;;;;;;5.58;5.08;;;;;;;24.86;60.35;98960.86;1750148;82;21146;-43
2021/07/06 04:57:41;;;;;;;6.65;5.37;;;;;;;24.88;60.31;98966.75;1750813;82;21016;-44
2021/07/06 05:00:11;;;;;;;7.15;4.92;;;;;;;24.91;60.57;98963.80;1751208;82;21008;-44
2021/07/06 05:02:38;;;;;;;6.50;5.10;;;;;;;24.94;60.23;98956.54;1751017;82;21650;-43
2021/07/06 05:05:05;;;;;;;7.12;5.03;;;;;;;24.99;59.90;98958.69;1743618;81;21080;-44
2021/07/06 05:07:36;;;;;;;7.95;5.60;;;;;;;25.03;59.77;98955.90;1726340;82;21851;-43
2021/07/06 05:10:05;;;;;;;6.97;5.42;;;;;;;25.06;60.16;98961.14;1726290;83;21040;-43
2021/07/06 05:12:33;;;;;;;5.90;5.28;;;;;;;25.09;60.03;98960.20;1726587;81;21025;-43
2021/07/06 05:15:01;;;;;;;7.20;5.40;;;;;;;25.13;59.84;98951.09;1726405;82;21012;-43
2021/07/06 05:17:27;;;;;;;7.30;5.40;;;;;;;25.17;59.76;98947.55;1691385;84;21456;-43
2021/07/06 05:19:54;;;;;;;7.12;5.95;;;;;;;25.20;59.75;98949.37;1692229;83;21668;-43
2021/07/06 05:22:22;;;;;;;8.03;5.78;;;;;;;25.25;59.48;98948.75;1697063;83;20970;-44
2021/07/06 05:24:50;;;;;;;8.53;5.45;;;;;;;25.29;59.42;98957.66;1701851;84;21116;-44
2021/07/06 05:27:16;;;;;;;7.22;5.60;;;;;;;25.35;59.15;98957.80;1701961;84;21032;-43
2021/07/06 05:29:44;;;;;;;6.37;5.28;;;;;;;25.37;59.02;98957.47;1691823;83;21070;-43
2021/07/06 05:32:10;;;;;;;8.98;5.60;;;;;;;25.40;58.88;98955.16;1687061;85;21128;-43
2021/07/06 05:34:37;;;;;;;5.83;5.20;;;;;;;25.43;58.74;98954.83;1704157;83;21040;-44
2021/07/06 05:37:04;;;;;;;8.28;5.47;;;;;;;25.44;59.02;98959.14;1692481;83;21241;-43
2021/07/06 05:39:31;;;;;;;8.15;5.22;;;;;;;25.48;58.98;98956.97;1691455;84;21464;-43
2021/07/06 05:41:58;;;;;;;6.33;5.60;;;;;;;25.55;58.75;98958.66;1691727;84;21035;-44
2021/07/06 05:44:25;;;;;;;6.03;5.42;;;;;;;25.59;58.87;98956.48;1691551;82;21154;-43
2021/07/06 05:46:52;;;;;;;8.48;5.67;;;;;;;25.61;58.89;98960.95;1686051;84;21818;-44
2021/07/06 05:49:18;;;;;;;6.12;5.53;;;;;;;25.65;58.80;98957.38;1699120;84;21041;-43
2021/07/06 05:51:45;;;;;;;6.55;5.40;;;;;;;25.72;59.08;98956.41;1720316;83;20952;-43
2021/07/06 05:54:11;;;;;;;10.25;5.60;;;;;;;25.77;58.84;98957.77;1720574;82;21005;-44
2021/07/06 05:56:38;;;;;;;6.17;5.42;;;;;;;25.85;58.51;98958.31;1720373;83;21877;-43
2021/07/06 05:59:05;;;;;;;7.03;5.40;;;;;;;25.94;58.17;98963.84;1720395;83;20945;-44
2021/07/06 06:01:34;;;;;;;8.05;5.15;;;;;;;26.02;57.74;98960.69;1720197;83;20928;-43
2021/07/06 06:04:00;;;;;;;6.15;5.30;;;;;;;26.08;57.85;98962.35;1710279;83;21047;-43
2021/07/06 06:06:27;;;;;;;6.75;5.28;;;;;;;26.16;57.79;98959.97;1691482;84;21099;-44
2021/07/06 06:08:53;;;;;;;7.15;5.40;;;;;;;26.24;57.67;98967.48;1691504;84;21966;-43
2021/07/06 06:11:21;;;;;;;7.12;5.30;;;;;;;26.30;57.49;98963.44;1691187;84;20976;-44
2021/07/06 06:13:48;;;;;;;9.83;5.75;;;;;;;26.35;57.38;98966.95;1692096;83;21029;-43
2021/07/06 06:16:14;;;;;;;6.10;5.12;;;;;;;26.40;57.74;98970.45;1691456;84;21088;-43
2021/07/06 06:18:41;;;;;;;5.92;5.33;;;;;;;26.46;57.41;98970.57;1703507;83;21012;-43
2021/07/06 06:21:08;;;;;;;6.28;5.30;;;;;;;26.50;56.87;98968.37;1720309;83;21530;-43
2021/07/06 06:23:34;;;;;;;5.67;5.08;;;;;;;26.54;56.71;98964.77;1704580;83;21075;-43
2021/07/06 06:26:01;;;;;;;8.05;5.87;;;;;;;26.59;56.80;98966.27;1691560;84;20932;-44
2021/07/06 06:28:27;;;;;;;6.37;5.60;;;;;;;26.64;57.25;98963.45;1691443;84;21048;-44
2021/07/06 06:30:55;;;;;;;6.47;5.12;;;;;;;26.68;57.17;98962.63;1692330;83;21032;-44
2021/07/06 06:33:22;;;;;;;8.00;5.22;;;;;;;26.68;56.90;98970.35;1702473;83;21107;-43
2021/07/06 06:35:48;;;;;;;11.48;5.30;;;;;;;26.67;57.15;98970.23;1718304;83;21542;-43
2021/07/06 06:38:15;;;;;;;5.85;5.35;;;;;;;26.69;57.29;98968.34;1698727;83;20980;-44
2021/07/06 06:40:43;;;;;;;5.72;5.17;;;;;;;26.74;56.82;98965.67;1691635;84;21530;-43
2021/07/06 06:43:10;;;;;;;9.05;5.10;;;;;;;26.79;56.46;98965.00;1695530;82;21116;-44
2021/07/06 06:45:36;;;;;;;5.58;4.90;;;;;;;26.84;56.55;98962.17;1720493;83;21151;-44
2021/07/06 06:48:03;;;;;;;5.78;5.15;;;;;;;26.90;56.10;98970.03;1720813;83;21475;-44
2021/07/06 06:50:30;;;;;;;6.20;5.08;;;;;;;26.94;56.38;98959.47;1718404;83;20968;-44
2021/07/06 06:52:56;;;;;;;5.97;5.37;;;;;;;26.97;56.16;98965.45;1718607;83;20972;-44
2021/07/06 06:55:23;;;;;;;6.33;5.05;;;;;;;27.00;56.16;98967.30;1720508;83;21549;-43
2021/07/06 06:57:49;;;;;;;6.42;5.25;;;;;;;27.06;56.64;98967.39;1720265;83;21148;-44
2021/07/06 07:00:16;;;;;;;6.70;4.70;;;;;;;27.09;56.64;98967.19;1720548;83;21016;-44
2021/07/06 07:02:44;;;;;;;5.83;4.85;;;;;;;27.13;56.26;98968.38;1720747;83;21005;-43
2021/07/06 07:05:12;;;;;;;7.45;4.70;;;;;;;27.19;55.74;98971.41;1718754;83;21005;-44
2021/07/06 07:07:39;;;;;;;5.28;4.78;;;;;;;27.25;55.42;98961.11;1715175;83;20989;-43
2021/07/06 07:10:08;;;;;;;10.13;4.78;;;;;;;27.33;55.47;98969.08;1715152;83;21133;-43
2021/07/06 07:12:35;;;;;;;6.05;4.58;;;;;;;27.15;55.62;98929.09;1703326;83;21028;-44
2021/07/06 07:15:06;;;;;;;6.03;4.53;;;;;;;27.46;54.52;98963.95;1721296;82;21587;-43
2021/07/06 07:17:33;;;;;;;4.65;4.03;;;;;;;27.46;54.46;98961.94;1721461;83;21057;-43
2021/07/06 07:19:59;;;;;;;5.40;3.95;;;;;;;27.50;54.23;98963.92;1743403;82;20995;-43
2021/07/06 07:22:27;;;;;;;5.30;4.20;;;;;;;27.55;53.51;98963.23;1749994;82;21509;-44
2021/07/06 07:24:53;;;;;;;4.10;3.70;;;;;;;27.60;53.31;98970.14;1751013;82;21009;-44
2021/07/06 07:27:20;;;;;;;6.25;4.10;;;;;;;27.68;52.85;98971.29;1750790;81;21072;-43
2021/07/06 07:29:46;;;;;;;6.17;4.10;;;;;;;27.76;52.70;98969.62;1715624;83;21052;-43
2021/07/06 07:32:14;;;;;;;6.03;3.87;;;;;;;27.89;52.38;98973.45;1716714;82;21004;-43
2021/07/06 07:34:42;;;;;;;5.47;4.03;;;;;;;28.05;52.08;98975.70;1715008;83;21093;-44
2021/07/06 07:37:11;;;;;;;5.75;4.08;;;;;;;28.25;51.99;98972.94;1715253;83;20977;-44
2021/07/06 07:39:38;;;;;;;4.92;3.60;;;;;;;28.45;52.22;98969.37;1714969;83;21678;-44
2021/07/06 07:42:05;;;;;;;8.75;4.03;;;;;;;28.62;51.25;98969.53;1715130;83;21024;-43
2021/07/06 07:44:32;;;;;;;6.95;3.72;;;;;;;28.78;50.65;98975.32;1715113;83;21606;-44
2021/07/06 07:46:59;;;;;;;7.92;3.70;;;;;;;28.94;49.62;98966.97;1706472;83;21125;-43
2021/07/06 07:49:26;;;;;;;5.33;4.12;;;;;;;29.08;49.17;98976.48;1702074;83;21385;-44
2021/07/06 07:51:52;;;;;;;4.92;3.52;;;;;;;28.99;48.82;98950.14;1714969;83;21036;-44
2021/07/06 07:54:19;;;;;;;10.10;4.17;;;;;;;29.31;47.85;98969.84;1715264;83;21531;-43
2021/07/06 07:56:46;;;;;;;4.83;3.95;;;;;;;29.37;46.63;98974.84;1714904;83;20960;-43
2021/07/06 07:59:13;;;;;;;5.80;4.30;;;;;;;29.40;47.00;98975.23;1700889;84;21165;-44
2021/07/06 08:01:40;;;;;;;7.33;4.25;;;;;;;29.44;47.75;98974.99;1700756;84;21024;-44
2021/07/06 08:04:08;;;;;;;6.33;4.10;;;;;;;29.51;47.88;98973.92;1707053;83;20949;-43
2021/07/06 08:06:35;;;;;;;7.15;3.85;;;;;;;29.54;47.38;98974.31;1736796;81;21010;-43
2021/07/06 08:09:03;;;;;;;7.15;4.35;;;;;;;29.59;48.19;98977.77;1743312;81;20939;-44
2021/07/06 08:11:30;;;;;;;7.95;5.08;;;;;;;29.70;47.11;98980.64;1743293;81;21928;-43
2021/07/06 08:13:57;;;;;;;5.25;4.05;;;;;;;29.78;47.20;98979.53;1742179;82;20938;-44
2021/07/06 08:16:23;;;;;;;6.05;4.22;;;;;;;29.87;46.78;98980.72;1743411;81;21571;-44
2021/07/06 08:18:50;;;;;;;7.37;4.45;;;;;;;29.92;47.10;98988.41;1743293;81;21030;-43
2021/07/06 08:21:16;;;;;;;5.90;4.15;;;;;;;30.02;46.13;98983.38;1743259;82;21029;-44
2021/07/06 08:23:44;;;;;;;5.42;3.90;;;;;;;30.07;46.67;98983.40;1736007;82;21195;-43
2021/07/06 08:26:11;;;;;;;5.95;4.20;;;;;;;30.17;46.60;98986.75;1734775;82;20954;-43
2021/07/06 08:28:37;;;;;;;4.40;4.00;;;;;;;30.21;45.67;98983.84;1735025;82;20974;-44
2021/07/06 08:31:05;;;;;;;4.80;3.60;;;;;;;30.22;46.08;98986.01;1734694;82;20998;-43
2021/07/06 08:33:31;;;;;;;5.12;3.83;;;;;;;30.27;46.09;98985.27;1735668;81;21065;-43
2021/07/06 08:35:58;;;;;;;7.25;5.83;;;;;;;30.35;45.54;98987.73;1743444;81;21666;-43
2021/07/06 08:38:24;;;;;;;6.83;3.92;;;;;;;30.46;45.91;98994.77;1743197;82;21523;-44
2021/07/06 08:40:51;;;;;;;7.62;4.30;;;;;;;30.52;45.36;98996.95;1743153;82;20938;-43
2021/07/06 08:43:18;;;;;;;7.17;4.35;;;;;;;30.58;45.37;98994.17;1740005;80;21003;-44
2021/07/06 08:45:45;;;;;;;5.90;4.00;;;;;;;30.62;44.65;98988.46;1713624;82;21572;-44
2021/07/06 08:48:13;;;;;;;6.50;4.30;;;;;;;30.66;45.08;98988.20;1749189;81;21144;-44
2021/07/06 08:50:40;;;;;;;4.20;3.80;;;;;;;30.74;45.30;98985.70;1739918;81;20982;-44
2021/07/06 08:53:06;;;;;;;5.15;4.10;;;;;;;30.85;45.66;98984.30;1736137;82;21033;-44
2021/07/06 08:55:33;;;;;;;4.78;4.28;;;;;;;30.96;45.60;98988.52;1743029;81;20977;-44
2021/07/06 08:57:59;;;;;;;6.50;4.08;;;;;;;31.03;44.81;98990.20;1743445;82;21006;-43
2021/07/06 09:00:30;;;;;;;5.35;4.20;;;;;;;31.06;43.57;98992.63;1707578;83;21944;-44
2021/07/06 09:02:57;;;;;;;7.40;3.90;;;;;;;31.06;44.64;98988.43;1743078;81;21061;-43
2021/07/06 09:05:24;;;;;;;5.87;4.08;;;;;;;31.12;43.73;98996.20;1694541;83;21587;-43
2021/07/06 09:07:51;;;;;;;5.95;3.98;;;;;;;31.17;43.37;98995.45;1714878;83;21008;-44
2021/07/06 09:10:23;;;;;;;7.83;4.37;;;;;;;31.21;42.98;98995.19;1715021;83;21566;-43
2021/07/06 09:12:50;;;;;;;4.67;3.70;;;;;;;31.26;42.56;98992.39;1713752;83;21185;-43
2021/07/06 09:15:27;;;;;;;5.70;3.70;;;;;;;31.31;41.96;98993.02;1715055;83;21491;-44
2021/07/06 09:18:14;;;;;;;11.53;4.72;;;;;;;31.37;42.47;98991.62;1714319;83;21024;-43
2021/07/06 09:20:44;;;;;;;6.05;4.80;;;;;;;31.42;42.66;98988.03;1681207;85;21049;-44
2021/07/06 09:23:27;;;;;;;;;;;;;;;31.44;42.03;98980.66;1688261;84;21068;-44
2021/07/06 09:26:25;;;;;;;5.47;3.80;;;;;;;31.50;42.38;98981.41;1697703;83;21820;-44
2021/07/06 09:28:55;;;;;;;8.03;3.75;;;;;;;31.47;42.29;98979.62;1699052;83;21041;-43
2021/07/06 09:31:37;;;;;;;6.62;4.78;;;;;;;31.53;42.50;98983.81;1681679;85;21033;-44
2021/07/06 09:34:13;;;;;;;4.50;3.10;;;;;;;31.59;42.33;98986.64;1694288;83;21042;-44
2021/07/06 09:36:48;;;;;;;4.35;3.55;;;;;;;31.62;40.86;98981.41;1709973;83;21018;-44
2021/07/06 09:39:25;;;;;;;3.98;3.50;;;;;;;31.61;41.45;98986.91;1705160;83;21065;-44
2021/07/06 09:41:55;;;;;;;4.08;3.40;;;;;;;31.66;42.03;98987.54;1710015;83;21020;-44
2021/07/06 09:44:25;;;;;;;5.10;4.00;;;;;;;31.70;41.35;98992.23;1709989;83;21000;-44
2021/07/06 09:47:04;;;;;;;3.95;3.58;;;;;;;31.73;41.63;98990.56;1710037;83;21033;-44
2021/07/06 09:49:37;;;;;;;6.15;3.80;;;;;;;31.84;42.01;98993.98;1709909;83;21421;-44
2021/07/06 09:52:18;;;;;;;4.80;3.62;;;;;;;31.98;42.31;98992.93;1710191;83;21105;-44
2021/07/06 09:54:49;;;;;;;4.00;3.55;;;;;;;32.13;42.13;98990.61;1687080;83;20997;-44
2021/07/06 09:57:29;;;;;;;9.03;4.07;;;;;;;32.25;41.62;98990.67;1682036;85;21027;-44
2021/07/06 10:00:02;;;;;;;3.80;3.40;;;;;;;32.37;41.42;98994.20;1704486;83;21021;-44
2021/07/06 10:02:31;;;;;;;3.87;3.52;;;;;;;32.51;40.87;98995.92;1708703;83;21009;-44
2021/07/06 10:05:00;;;;;;;6.60;3.62;;;;;;;32.62;40.38;98999.31;1696369;83;21154;-44
2021/07/06 10:07:27;;;;;;;6.58;3.50;;;;;;;32.70;39.83;99003.11;1708216;83;21005;-44
2021/07/06 10:09:54;;;;;;;5.90;3.75;;;;;;;32.80;39.35;98995.14;1707206;84;21004;-44
2021/07/06 10:12:24;;;;;;;7.22;3.47;;;;;;;32.84;39.16;99002.64;1707215;84;21078;-44
2021/07/06 10:14:51;;;;;;;5.30;3.90;;;;;;;32.91;38.98;99000.05;1707428;84;21065;-44
2021/07/06 10:17:18;;;;;;;6.67;3.85;;;;;;;32.97;39.31;98996.55;1704784;83;21137;-44
2021/07/06 10:21:58;;;;;;;5.95;4.00;;;;;;;33.16;38.86;99000.92;1783037;79;23384;-43
2021/07/06 10:24:26;;;;;;;7.03;4.00;;;;;;;33.06;38.73;99001.86;1755302;81;20942;-44
2021/07/06 10:26:58;;;;;;;6.85;4.03;;;;;;;33.13;38.92;98996.30;1756559;81;21522;-44
2021/07/06 10:29:33;;;;;;;6.30;3.70;;;;;;;33.19;38.91;98998.46;1700259;83;20906;-44
2021/07/06 10:32:00;;;;;;;5.30;3.70;;;;;;;33.23;39.00;98999.58;1689096;84;21001;-44
2021/07/06 10:34:28;;;;;;;5.65;3.50;;;;;;;33.26;38.93;99008.38;1650228;84;20989;-44
2021/07/06 10:36:59;;;;;;;4.25;3.52;;;;;;;33.25;38.95;99002.63;1693063;84;21025;-44
2021/07/06 10:39:47;;;;;;;5.22;3.50;;;;;;;33.26;38.77;98999.95;1702025;84;21865;-44
2021/07/06 10:42:15;;;;;;;6.53;3.42;;;;;;;33.21;39.01;99012.00;1693009;84;21565;-43
2021/07/06 10:44:42;;;;;;;3.98;3.60;;;;;;;33.13;38.38;99008.30;1694521;84;20940;-44
2021/07/06 10:47:36;;;;;;;4.72;3.60;;;;;;;33.04;38.24;99010.03;1711490;83;20993;-44
2021/07/06 10:50:32;;;;;;;6.00;3.58;;;;;;;32.97;38.54;99007.04;1706427;83;21064;-44
2021/07/06 10:53:23;;;;;;;5.03;3.22;;;;;;;32.98;39.04;99012.11;1697218;81;21803;-44
2021/07/06 10:56:02;;;;;;;3.62;2.80;;;;;;;33.13;39.34;99018.78;1720287;83;20949;-44
2021/07/06 10:58:53;;;;;;;5.08;3.05;;;;;;;33.34;38.16;99012.13;1723888;83;21008;-44
2021/07/06 11:01:45;;;;;;;5.03;3.37;;;;;;;33.53;38.46;99014.39;1723522;83;21023;-43
2021/07/06 11:04:14;;;;;;;5.28;3.42;;;;;;;33.70;37.56;99015.01;1706777;83;21470;-44
2021/07/06 11:06:50;;;;;;;5.45;3.22;;;;;;;33.81;36.76;99015.55;1713756;83;21563;-44
2021/07/06 11:09:35;;;;;;;4.20;3.47;;;;;;;33.87;37.41;99018.42;1723497;83;21019;-44
2021/07/06 11:12:24;;;;;;;6.12;3.77;;;;;;;33.94;37.59;99011.44;1723458;83;21023;-44
2021/07/06 11:14:59;;;;;;;5.53;4.03;;;;;;;33.94;37.13;99015.02;1723438;83;21530;-44
2021/07/06 11:17:41;;;;;;;5.85;4.08;;;;;;;33.83;37.02;99015.16;1723474;83;21039;-44
2021/07/06 11:20:18;;;;;;;4.60;4.00;;;;;;;33.71;36.87;99015.13;1707642;83;21066;-44
2021/07/06 11:22:55;;;;;;;5.75;3.98;;;;;;;33.51;37.32;99022.58;1708060;84;20882;-44
2021/07/06 11:25:35;;;;;;;6.72;3.70;;;;;;;33.41;38.03;99028.41;1743879;82;20991;-44
2021/07/06 11:28:25;;;;;;;5.62;3.58;;;;;;;33.37;38.64;99032.16;1708046;84;21001;-44
2021/07/06 11:31:01;;;;;;;5.67;3.50;;;;;;;33.40;38.23;99031.13;1708021;83;21087;-44
2021/07/06 11:33:37;;;;;;;5.90;4.00;;;;;;;33.45;38.56;99035.94;1704154;82;21240;-44
2021/07/06 11:36:10;;;;;;;6.30;3.67;;;;;;;33.63;38.08;99027.59;1713491;83;21006;-44
2021/07/06 11:38:43;;;;;;;4.30;3.35;;;;;;;33.86;38.05;99028.14;1678293;85;20996;-44
2021/07/06 11:41:12;;;;;;;5.05;3.72;;;;;;;34.12;38.14;99029.02;1713440;83;21042;-44
2021/07/06 11:43:40;;;;;;;7.30;3.83;;;;;;;34.47;36.65;99028.09;1676295;84;21018;-44
2021/07/06 11:46:11;;;;;;;4.80;3.70;;;;;;;34.85;36.42;99028.91;1652379;86;21164;-44